Time;durP1;ratioP1;P1;durP2;ratioP2;P2;SDS_P1;SDS_P2;PMS_P1;PMS_P2;Temp;Humidity;BMP_temperature;BMP_pressure;BME280_temperature;BME280_humidity;BME280_pressure;Samples;Min_cycle;Max_cycle;Signal;HPM_P1;HPM_P2
2022/09/29 00:00:30;;;;;;;42.90;16.20;;;;;;;7.71;86.72;98507.10;106142;1271;138417;-78
2022/09/29 00:03:25;;;;;;;29.50;15.70;;;;;;;7.71;86.80;98507.83;106206;1271;97174;-77
2022/09/29 00:05:58;;;;;;;23.70;13.80;;;;;;;7.71;86.93;98510.23;106198;1270;138219;-76
2022/09/29 00:08:31;;;;;;;21.60;14.60;;;;;;;7.70;86.99;98506.46;107692;1270;109523;-77
2022/09/29 00:11:09;;;;;;;22.10;13.10;;;;;;;7.70;86.96;98504.07;106230;1270;107816;-77
2022/09/29 00:13:41;;;;;;;16.90;13.00;;;;;;;7.69;87.20;98498.75;106062;1272;138288;-78
2022/09/29 00:16:15;;;;;;;18.30;13.80;;;;;;;7.68;87.14;98498.95;106228;1271;96480;-78
2022/09/29 00:18:48;;;;;;;18.90;13.40;;;;;;;7.70;87.13;98500.94;106201;1270;137980;-78
2022/09/29 00:21:21;;;;;;;18.60;12.90;;;;;;;7.71;87.11;98497.96;106314;1270;108925;-77
2022/09/29 00:23:53;;;;;;;17.60;12.90;;;;;;;7.70;86.94;98501.44;107109;1270;138347;-77
2022/09/29 00:26:26;;;;;;;18.50;13.40;;;;;;;7.69;86.94;98498.91;106269;1271;96493;-77
2022/09/29 00:29:00;;;;;;;16.60;12.60;;;;;;;7.67;87.12;98501.09;106328;1270;96546;-77
2022/09/29 00:31:34;;;;;;;18.90;14.40;;;;;;;7.67;87.17;98501.81;106198;1271;138133;-77
2022/09/29 00:34:06;;;;;;;23.00;13.20;;;;;;;7.67;87.16;98505.08;106273;1270;109010;-77
2022/09/29 00:36:40;;;;;;;19.10;13.80;;;;;;;7.64;86.99;98498.46;106157;1271;138169;-77
2022/09/29 00:39:13;;;;;;;16.40;13.30;;;;;;;7.66;87.16;98499.40;106290;1270;96565;-75
2022/09/29 00:41:45;;;;;;;17.20;13.20;;;;;;;7.68;87.25;98505.86;106269;1270;138707;-77
2022/09/29 00:44:55;;;;;;;17.60;14.10;;;;;;;7.67;87.02;98505.23;106280;1271;111120;-77
2022/09/29 00:47:29;;;;;;;19.00;13.10;;;;;;;7.69;87.30;98503.95;106337;1270;107890;-78
2022/09/29 00:50:06;;;;;;;17.80;13.80;;;;;;;7.68;87.22;98511.77;106215;1270;138037;-77
2022/09/29 00:52:44;;;;;;;16.90;13.40;;;;;;;7.68;87.19;98507.44;106307;1270;96492;-77
2022/09/29 00:55:19;;;;;;;19.60;13.60;;;;;;;7.68;87.08;98501.73;106253;1270;139302;-78
2022/09/29 00:57:56;;;;;;;18.00;13.10;;;;;;;7.69;87.27;98512.05;106344;1270;110123;-78
2022/09/29 01:00:28;;;;;;;17.90;13.90;;;;;;;7.70;87.16;98515.65;106222;1270;138360;-78
2022/09/29 01:03:04;;;;;;;16.00;13.20;;;;;;;7.71;87.28;98515.77;106283;1270;109636;-78
2022/09/29 01:05:42;;;;;;;18.80;13.70;;;;;;;7.72;87.32;98516.08;106359;1270;96498;-76
2022/09/29 01:08:20;;;;;;;17.20;13.70;;;;;;;7.73;87.21;98517.61;106372;1270;96370;-76
2022/09/29 01:10:54;;;;;;;17.80;13.60;;;;;;;7.74;87.15;98520.30;106311;1270;111454;-76
2022/09/29 01:13:27;;;;;;;19.00;13.10;;;;;;;7.76;87.14;98520.90;106152;1271;138727;-77
2022/09/29 01:16:00;;;;;;;15.50;12.70;;;;;;;7.77;87.03;98516.88;106201;1270;108264;-76
2022/09/29 01:18:34;;;;;;;17.00;13.20;;;;;;;7.77;87.01;98523.97;106117;1270;139946;-77
2022/09/29 01:21:29;;;;;;;15.90;13.20;;;;;;;7.78;87.05;98529.12;106234;1270;97789;-77
2022/09/29 01:24:32;;;;;;;16.30;12.40;;;;;;;7.77;86.99;98534.55;106080;1271;137730;-78
2022/09/29 01:27:25;;;;;;;18.50;12.90;;;;;;;7.77;87.01;98531.57;106316;1271;107881;-76
2022/09/29 01:30:13;;;;;;;15.50;13.00;;;;;;;7.75;86.90;98534.27;106156;1271;140909;-77
2022/09/29 01:33:01;;;;;;;16.30;12.20;;;;;;;7.74;86.98;98539.71;106268;1271;96675;-78
2022/09/29 01:35:43;;;;;;;14.90;12.20;;;;;;;7.73;86.98;98542.34;106361;1270;96848;-78
2022/09/29 01:38:31;;;;;;;16.50;13.00;;;;;;;7.69;86.81;98543.54;106330;1270;111079;-78
2022/09/29 01:41:10;;;;;;;17.10;12.70;;;;;;;7.68;86.85;98545.33;106330;1270;108814;-78
2022/09/29 01:43:47;;;;;;;16.20;12.80;;;;;;;7.68;86.98;98544.12;106219;1270;138267;-78
2022/09/29 01:46:24;;;;;;;16.10;12.50;;;;;;;7.67;87.11;98544.52;106365;1270;96511;-78
2022/09/29 01:48:58;;;;;;;17.00;13.00;;;;;;;7.66;86.96;98553.89;106197;1271;137000;-77
2022/09/29 01:51:38;;;;;;;15.60;12.80;;;;;;;7.66;87.00;98554.62;106332;1270;110124;-77
2022/09/29 01:54:17;;;;;;;17.00;12.60;;;;;;;7.64;86.87;98551.59;106154;1270;138499;-77
2022/09/29 01:56:56;;;;;;;16.00;12.50;;;;;;;7.63;87.02;98554.20;106291;1269;107957;-77
2022/09/29 01:59:35;;;;;;;19.80;12.50;;;;;;;7.63;86.96;98551.43;106270;1270;96511;-77
2022/09/29 02:02:15;;;;;;;15.10;12.00;;;;;;;7.63;86.98;98548.17;106140;1269;138165;-78
2022/09/29 02:04:51;;;;;;;19.40;12.50;;;;;;;7.63;86.91;98554.38;106281;1269;110403;-79
2022/09/29 02:07:30;;;;;;;16.90;12.90;;;;;;;7.64;86.77;98554.69;106127;1270;138236;-78
2022/09/29 02:10:07;;;;;;;14.90;11.90;;;;;;;7.64;86.74;98557.13;106253;1270;108025;-78
2022/09/29 02:12:42;;;;;;;17.40;13.10;;;;;;;7.64;86.73;98556.61;106130;1270;138132;-77
2022/09/29 02:15:19;;;;;;;15.70;11.80;;;;;;;7.64;86.58;98559.91;106229;1271;96644;-78
2022/09/29 02:17:50;;;;;;;;;;;;;;;7.62;86.59;98563.28;106172;1270;137256;-78
2022/09/29 02:20:23;;;;;;;16.20;11.40;;;;;;;7.61;86.57;98560.88;106212;1272;107937;-79
2022/09/29 02:22:55;;;;;;;15.50;11.70;;;;;;;7.61;86.60;98561.23;106176;1271;108941;-79
2022/09/29 02:25:27;;;;;;;15.10;12.30;;;;;;;7.62;86.79;98566.02;106140;1270;138265;-78
2022/09/29 02:28:01;;;;;;;14.80;11.70;;;;;;;7.64;86.75;98574.61;106300;1270;96461;-78
2022/09/29 02:30:34;;;;;;;17.00;11.90;;;;;;;7.65;86.66;98578.52;106176;1270;136964;-78
2022/09/29 02:33:06;;;;;;;15.20;12.30;;;;;;;7.66;86.57;98572.25;106320;1270;107869;-78
2022/09/29 02:35:45;;;;;;;15.50;12.60;;;;;;;7.67;86.60;98573.07;106324;1270;109017;-77
2022/09/29 02:38:26;;;;;;;19.00;12.90;;;;;;;7.67;86.57;98575.14;106523;1270;96495;-79
2022/09/29 02:41:05;;;;;;;19.00;13.60;;;;;;;7.65;86.42;98574.52;106315;1271;96508;-78
2022/09/29 02:43:56;;;;;;;16.70;12.70;;;;;;;7.64;86.41;98577.67;106057;1270;138100;-78
2022/09/29 02:46:42;;;;;;;17.70;12.80;;;;;;;7.66;86.53;98588.84;106317;1270;108846;-78
2022/09/29 02:49:43;;;;;;;17.10;13.40;;;;;;;7.67;86.44;98597.30;106127;1272;139597;-77
2022/09/29 02:52:26;;;;;;;17.20;12.70;;;;;;;7.68;86.38;98594.96;106080;1271;258923;-77
2022/09/29 02:55:08;;;;;;;18.80;12.60;;;;;;;7.68;86.45;98597.38;106202;1270;138177;-77
2022/09/29 02:57:48;;;;;;;14.90;12.00;;;;;;;7.70;86.15;98603.54;106336;1272;111131;-81
2022/09/29 03:00:22;;;;;;;16.00;12.70;;;;;;;7.70;85.82;98602.33;106124;1271;138577;-77
2022/09/29 03:02:54;;;;;;;16.00;12.70;;;;;;;7.71;85.87;98602.45;106204;1270;107512;-77
2022/09/29 03:05:26;;;;;;;14.80;12.10;;;;;;;7.73;85.85;98596.15;106265;1270;96499;-77
2022/09/29 03:07:58;;;;;;;16.30;12.60;;;;;;;7.75;85.83;98595.52;106144;1271;138157;-76
2022/09/29 03:10:30;;;;;;;14.40;11.80;;;;;;;7.76;85.46;98596.34;106267;1270;110053;-77
2022/09/29 03:13:02;;;;;;;14.10;12.40;;;;;;;7.76;85.10;98602.58;106128;1271;138709;-79
2022/09/29 03:15:35;;;;;;;14.30;12.00;;;;;;;7.74;84.84;98604.90;106225;1271;109076;-77
2022/09/29 03:18:07;;;;;;;13.90;12.10;;;;;;;7.73;84.50;98607.02;106152;1269;138438;-76
2022/09/29 03:20:41;;;;;;;13.70;12.30;;;;;;;7.72;84.44;98608.80;106241;1270;95084;-77
2022/09/29 03:23:13;;;;;;;14.70;12.60;;;;;;;7.71;84.31;98616.61;106283;1270;110105;-77
2022/09/29 03:25:45;;;;;;;13.70;12.30;;;;;;;7.70;84.17;98621.17;106129;1271;138532;-79
2022/09/29 03:28:18;;;;;;;13.00;11.40;;;;;;;7.67;84.05;98621.13;106204;1272;108960;-76
2022/09/29 03:30:50;;;;;;;14.60;12.50;;;;;;;7.66;83.95;98634.52;106181;1270;139216;-76
2022/09/29 03:33:22;;;;;;;13.70;12.20;;;;;;;7.63;83.90;98626.70;106302;1271;96381;-75
2022/09/29 03:35:54;;;;;;;14.40;12.80;;;;;;;7.61;83.90;98626.63;106086;1271;138140;-75
2022/09/29 03:38:26;;;;;;;13.10;11.70;;;;;;;7.59;83.93;98626.88;106309;1270;109090;-75
2022/09/29 03:40:58;;;;;;;18.90;12.20;;;;;;;7.58;83.75;98621.92;106259;1270;107823;-75
2022/09/29 03:43:30;;;;;;;16.20;12.60;;;;;;;7.55;83.85;98621.52;106186;1270;138402;-76
2022/09/29 03:46:02;;;;;;;16.60;13.00;;;;;;;7.53;83.65;98625.23;106252;1271;96495;-76
2022/09/29 03:48:35;;;;;;;15.80;12.80;;;;;;;7.50;83.81;98626.41;106191;1270;138005;-75
2022/09/29 03:51:09;;;;;;;16.00;12.70;;;;;;;7.49;83.87;98623.02;106294;1270;108934;-76
2022/09/29 03:53:41;;;;;;;15.30;13.10;;;;;;;7.48;84.15;98628.95;106666;1271;108778;-75
2022/09/29 03:56:13;;;;;;;17.70;13.30;;;;;;;7.46;83.86;98634.57;106295;1270;96462;-74
2022/09/29 03:58:46;;;;;;;15.40;13.70;;;;;;;7.43;83.89;98642.14;106342;1271;97006;-76
2022/09/29 04:01:21;;;;;;;16.60;13.90;;;;;;;7.40;84.05;98636.91;106206;1270;138211;-75
2022/09/29 04:03:53;;;;;;;15.30;13.50;;;;;;;7.39;84.14;98632.50;106450;1271;109033;-75
2022/09/29 04:06:26;;;;;;;16.30;14.50;;;;;;;7.36;83.86;98631.23;106729;1270;138536;-78
2022/09/29 04:08:58;;;;;;;15.90;14.20;;;;;;;7.34;84.18;98625.42;106236;1271;96503;-76
2022/09/29 04:11:31;;;;;;;17.50;13.60;;;;;;;7.34;84.15;98626.30;106809;1270;94468;-76
2022/09/29 04:14:03;;;;;;;15.60;13.50;;;;;;;7.34;84.28;98627.48;106168;1271;137831;-77
2022/09/29 04:16:35;;;;;;;15.10;13.40;;;;;;;7.33;84.19;98627.86;106281;1270;109019;-77
2022/09/29 04:19:07;;;;;;;16.90;13.50;;;;;;;7.33;84.32;98627.20;106488;1270;138241;-77
2022/09/29 04:21:39;;;;;;;15.40;13.60;;;;;;;7.32;84.27;98629.13;106721;1270;96494;-78
2022/09/29 04:24:12;;;;;;;16.30;14.60;;;;;;;7.32;84.35;98635.35;106176;1270;138249;-76
2022/09/29 04:26:45;;;;;;;15.90;14.20;;;;;;;7.32;84.25;98636.79;106302;1271;111088;-76
2022/09/29 04:29:17;;;;;;;17.80;14.50;;;;;;;7.31;84.32;98642.66;106363;1271;108375;-76
2022/09/29 04:31:49;;;;;;;19.70;15.20;;;;;;;7.28;84.32;98644.18;106153;1271;138297;-76
2022/09/29 04:34:22;;;;;;;17.20;14.60;;;;;;;7.27;84.49;98645.43;106323;1270;96448;-77
2022/09/29 04:36:54;;;;;;;19.40;15.10;;;;;;;7.28;84.60;98648.52;106056;1273;138134;-76
2022/09/29 04:39:26;;;;;;;20.30;15.20;;;;;;;7.31;84.66;98650.83;106328;1270;111142;-76
2022/09/29 04:41:59;;;;;;;17.40;15.00;;;;;;;7.34;84.67;98657.25;107282;1270;138314;-77
2022/09/29 04:44:31;;;;;;;21.50;15.10;;;;;;;7.35;84.62;98658.73;106101;1272;108794;-77
2022/09/29 04:47:03;;;;;;;20.20;14.70;;;;;;;7.36;84.52;98655.95;106281;1271;96493;-77
2022/09/29 04:49:36;;;;;;;18.70;15.20;;;;;;;7.37;84.69;98660.39;106210;1272;138062;-76
2022/09/29 04:52:11;;;;;;;19.70;15.20;;;;;;;7.39;84.68;98662.73;106150;1272;109821;-76
2022/09/29 04:54:43;;;;;;;20.00;15.40;;;;;;;7.38;84.66;98664.51;106080;1271;138268;-75
2022/09/29 04:57:15;;;;;;;19.80;16.30;;;;;;;7.39;84.75;98663.61;106155;1271;109008;-76
2022/09/29 04:59:50;;;;;;;21.60;16.20;;;;;;;7.40;84.69;98663.74;105984;1272;138455;-76
2022/09/29 05:02:23;;;;;;;19.70;16.10;;;;;;;7.42;84.80;98660.34;106180;1271;96486;-76
2022/09/29 05:04:55;;;;;;;19.30;15.50;;;;;;;7.45;84.97;98661.41;106072;1272;111101;-79
2022/09/29 05:07:27;;;;;;;18.80;15.10;;;;;;;7.48;85.02;98664.02;106069;1272;141601;-78
2022/09/29 05:09:59;;;;;;;19.10;15.30;;;;;;;7.50;84.87;98663.59;106198;1271;108874;-77
2022/09/29 05:12:32;;;;;;;20.40;16.40;;;;;;;7.53;84.94;98667.79;106014;1272;139495;-76
2022/09/29 05:15:05;;;;;;;20.80;15.90;;;;;;;7.55;84.82;98669.42;106263;1271;96470;-76
2022/09/29 05:17:38;;;;;;;23.80;16.70;;;;;;;7.59;84.90;98672.03;106250;1272;109156;-77
2022/09/29 05:20:12;;;;;;;20.30;16.00;;;;;;;7.63;84.76;98686.05;106051;1272;137970;-76
2022/09/29 05:22:44;;;;;;;20.30;15.30;;;;;;;7.64;84.77;98686.00;106192;1272;107289;-76
2022/09/29 05:25:16;;;;;;;20.10;15.60;;;;;;;7.66;84.79;98689.52;106138;1270;138316;-76
2022/09/29 05:27:48;;;;;;;22.60;16.10;;;;;;;7.69;84.77;98694.38;106259;1270;97777;-75
2022/09/29 05:30:20;;;;;;;18.40;15.20;;;;;;;7.72;84.63;98693.59;106480;1270;138175;-76
2022/09/29 05:32:53;;;;;;;18.10;15.20;;;;;;;7.74;84.49;98698.18;106587;1272;108902;-76
2022/09/29 05:35:28;;;;;;;;;;;;;;;7.75;84.62;98701.95;106279;1270;107821;-76
2022/09/29 05:38:00;;;;;;;21.10;14.50;;;;;;;7.76;84.55;98704.98;106147;1270;126018;-77
2022/09/29 05:40:32;;;;;;;20.20;14.80;;;;;;;7.79;84.62;98704.84;106144;1272;96505;-75
2022/09/29 05:43:05;;;;;;;21.70;15.90;;;;;;;7.80;84.39;98707.73;106070;1272;138122;-76
2022/09/29 05:45:37;;;;;;;19.50;15.00;;;;;;;7.82;84.36;98712.30;106180;1272;108856;-76
2022/09/29 05:48:10;;;;;;;20.10;15.10;;;;;;;7.82;84.26;98713.88;107524;1270;138933;-76
2022/09/29 05:50:42;;;;;;;22.60;16.00;;;;;;;7.84;84.33;98715.35;106259;1272;97245;-76
2022/09/29 05:53:15;;;;;;;19.50;16.10;;;;;;;7.86;84.43;98714.36;106157;1272;96529;-77
2022/09/29 05:55:47;;;;;;;19.60;15.60;;;;;;;7.89;84.34;98718.92;106593;1272;139805;-75
2022/09/29 05:58:19;;;;;;;21.20;14.90;;;;;;;7.90;84.30;98721.30;106428;1272;108034;-76
2022/09/29 06:00:51;;;;;;;18.90;15.50;;;;;;;7.92;84.26;98723.85;106578;1272;138880;-75
2022/09/29 06:03:24;;;;;;;18.60;15.10;;;;;;;7.93;84.15;98724.14;106365;1272;96478;-76
2022/09/29 06:05:56;;;;;;;18.50;15.10;;;;;;;7.94;84.06;98729.61;106111;1272;138968;-76
2022/09/29 06:08:28;;;;;;;18.10;15.00;;;;;;;7.95;84.03;98726.65;106147;1272;110544;-76
2022/09/29 06:11:07;;;;;;;20.40;15.50;;;;;;;7.94;83.93;98734.13;106189;1270;107658;-76
2022/09/29 06:13:42;;;;;;;21.30;14.90;;;;;;;7.95;83.94;98730.78;106086;1272;140350;-76
2022/09/29 06:16:15;;;;;;;25.30;15.30;;;;;;;7.97;83.98;98728.27;106259;1270;96550;-76
2022/09/29 06:18:48;;;;;;;17.60;14.80;;;;;;;8.00;83.80;98728.63;106076;1270;139350;-76
2022/09/29 06:21:22;;;;;;;19.20;16.00;;;;;;;8.05;83.89;98739.15;106241;1272;110233;-76
2022/09/29 06:23:56;;;;;;;18.90;15.70;;;;;;;8.06;83.58;98743.78;106099;1270;138327;-76
2022/09/29 06:26:29;;;;;;;19.30;15.90;;;;;;;8.06;83.53;98748.79;106236;1272;108253;-76
2022/09/29 06:29:03;;;;;;;21.10;16.20;;;;;;;8.05;83.30;98751.56;106266;1272;96528;-77
2022/09/29 06:31:36;;;;;;;18.50;15.90;;;;;;;8.06;83.23;98754.17;106101;1270;138167;-78
2022/09/29 06:34:09;;;;;;;19.50;16.20;;;;;;;8.05;83.30;98754.18;106298;1272;111059;-79
2022/09/29 06:39:34;;;;;;;19.20;15.70;;;;;;;8.12;83.27;98756.47;106196;1272;108835;-78
2022/09/29 06:42:07;;;;;;;20.00;16.10;;;;;;;8.15;83.12;98757.72;106123;1272;140135;-78
2022/09/29 06:44:39;;;;;;;18.00;15.40;;;;;;;8.20;83.27;98764.93;106276;1271;96349;-77
2022/09/29 06:47:12;;;;;;;18.50;15.80;;;;;;;8.25;83.11;98757.59;106194;1272;111128;-78
2022/09/29 06:49:44;;;;;;;17.20;14.80;;;;;;;8.29;82.94;98758.27;106026;1272;140004;-77
2022/09/29 06:52:37;;;;;;;17.10;14.70;;;;;;;8.35;82.79;98758.73;106153;1272;107782;-78
2022/09/29 06:55:10;;;;;;;20.70;15.70;;;;;;;8.39;82.64;98763.02;106078;1272;138279;-78
2022/09/29 06:57:44;;;;;;;18.30;15.40;;;;;;;8.42;82.58;98767.73;106869;1272;96494;-79
2022/09/29 07:00:17;;;;;;;17.80;15.00;;;;;;;8.46;82.22;98774.98;106091;1272;140059;-78
2022/09/29 07:02:49;;;;;;;20.90;14.70;;;;;;;8.46;82.13;98780.89;106161;1272;108877;-78
2022/09/29 07:05:22;;;;;;;17.00;14.40;;;;;;;8.50;82.17;98780.73;106123;1272;109000;-79
2022/09/29 07:07:55;;;;;;;17.10;14.30;;;;;;;8.55;82.23;98782.38;106059;1272;138879;-79
2022/09/29 07:10:32;;;;;;;17.60;14.00;;;;;;;8.59;81.90;98786.18;106099;1272;96679;-79
2022/09/29 07:13:04;;;;;;;19.00;13.40;;;;;;;8.60;81.66;98790.81;106038;1272;138245;-77
2022/09/29 07:15:37;;;;;;;16.80;13.90;;;;;;;8.61;81.68;98791.45;106166;1272;107714;-78
2022/09/29 07:18:09;;;;;;;15.00;13.30;;;;;;;8.65;81.62;98793.55;106071;1272;138577;-77
2022/09/29 07:20:43;;;;;;;20.60;14.20;;;;;;;8.67;81.51;98795.70;106163;1272;96598;-78
2022/09/29 07:23:15;;;;;;;15.70;13.20;;;;;;;8.67;81.43;98801.05;106207;1270;96488;-77
2022/09/29 07:25:48;;;;;;;14.80;13.00;;;;;;;8.68;81.18;98802.23;105998;1274;139242;-78
2022/09/29 07:28:24;;;;;;;16.20;13.40;;;;;;;8.69;81.05;98806.66;106144;1272;108903;-77
2022/09/29 07:31:04;;;;;;;16.90;13.00;;;;;;;8.72;80.85;98807.58;106148;1272;138401;-76
2022/09/29 07:33:48;;;;;;;17.30;13.30;;;;;;;8.74;80.92;98807.61;106260;1271;96482;-77
2022/09/29 07:36:21;;;;;;;14.50;12.60;;;;;;;8.77;80.79;98809.38;106061;1272;138760;-78
2022/09/29 07:38:53;;;;;;;16.00;13.00;;;;;;;8.80;80.80;98813.27;106162;1272;110169;-80
2022/09/29 07:41:26;;;;;;;14.80;12.20;;;;;;;8.83;80.61;98815.38;106249;1271;107083;-78
2022/09/29 07:43:59;;;;;;;14.30;12.40;;;;;;;8.85;80.41;98817.20;106058;1272;138560;-77
2022/09/29 07:46:31;;;;;;;14.00;12.30;;;;;;;8.83;79.86;98821.95;106201;1271;96473;-79
2022/09/29 07:49:05;;;;;;;12.70;11.40;;;;;;;8.81;79.92;98826.73;106082;1271;138328;-78
2022/09/29 07:51:37;;;;;;;13.40;11.40;;;;;;;8.82;79.66;98830.70;106201;1272;109979;-80
2022/09/29 07:54:10;;;;;;;16.10;12.80;;;;;;;8.85;79.62;98835.73;106124;1271;139561;-79
2022/09/29 07:56:42;;;;;;;13.60;12.10;;;;;;;8.91;79.58;98835.23;106213;1271;110707;-79
2022/09/29 07:59:15;;;;;;;13.30;10.50;;;;;;;8.99;79.44;98837.44;106186;1272;96497;-78
2022/09/29 08:01:47;;;;;;;12.50;11.20;;;;;;;9.01;78.74;98840.12;106056;1272;138302;-79
2022/09/29 08:04:19;;;;;;;15.50;11.90;;;;;;;9.06;78.66;98842.29;106192;1272;109949;-79
2022/09/29 08:06:52;;;;;;;13.00;11.70;;;;;;;9.23;78.83;98845.51;106114;1272;138384;-80
2022/09/29 08:09:24;;;;;;;11.80;10.50;;;;;;;9.55;78.45;98843.21;106108;1272;109067;-78
2022/09/29 08:12:12;;;;;;;12.40;10.80;;;;;;;9.77;77.69;98841.19;106087;1271;138609;-79
2022/09/29 08:14:44;;;;;;;11.80;10.50;;;;;;;9.89;77.10;98842.50;106213;1272;96489;-78
2022/09/29 08:17:17;;;;;;;12.70;10.40;;;;;;;9.95;76.94;98843.60;106179;1272;109602;-80
2022/09/29 08:19:49;;;;;;;13.90;11.30;;;;;;;10.00;76.60;98848.38;106026;1272;138707;-79
2022/09/29 08:22:21;;;;;;;12.30;11.10;;;;;;;9.98;76.29;98851.91;106152;1272;107763;-80
2022/09/29 08:24:53;;;;;;;15.20;11.40;;;;;;;9.97;76.30;98850.06;106060;1271;138396;-80
2022/09/29 08:27:28;;;;;;;12.00;10.60;;;;;;;10.06;76.31;98849.77;106152;1272;97064;-78
2022/09/29 08:30:00;;;;;;;11.90;10.60;;;;;;;10.29;76.54;98851.52;106085;1271;138484;-78
2022/09/29 08:32:32;;;;;;;12.00;10.20;;;;;;;10.66;76.26;98856.68;106204;1272;109031;-78
2022/09/29 08:35:08;;;;;;;12.60;9.40;;;;;;;10.96;75.59;98853.98;106172;1272;107901;-78
2022/09/29 08:37:40;;;;;;;10.50;9.40;;;;;;;11.13;74.70;98859.81;106596;1272;139996;-78
2022/09/29 08:40:14;;;;;;;10.70;9.70;;;;;;;11.16;73.74;98862.58;106187;1272;96483;-77
2022/09/29 08:42:54;;;;;;;11.00;9.10;;;;;;;11.14;73.66;98865.67;106047;1272;138383;-79
2022/09/29 08:45:32;;;;;;;10.50;9.50;;;;;;;11.20;73.54;98863.73;107078;1272;106128;-79
2022/09/29 08:48:10;;;;;;;9.70;8.80;;;;;;;11.29;72.99;98866.20;105991;1273;139530;-79
2022/09/29 08:50:58;;;;;;;10.20;8.60;;;;;;;11.41;73.48;98872.29;106179;1272;96599;-80
2022/09/29 08:53:37;;;;;;;9.80;8.50;;;;;;;11.67;73.51;98873.73;106305;1272;96736;-79
2022/09/29 08:56:15;;;;;;;9.20;8.30;;;;;;;11.84;72.70;98873.98;106088;1271;137894;-79
2022/09/29 08:58:47;;;;;;;9.20;8.20;;;;;;;11.93;72.57;98875.70;106186;1272;108454;-79
2022/09/29 09:01:30;;;;;;;10.10;8.50;;;;;;;12.03;72.20;98880.14;106077;1271;139683;-79
2022/09/29 09:04:33;;;;;;;9.40;8.10;;;;;;;12.07;71.67;98881.70;106130;1271;96618;-78
2022/09/29 09:07:15;;;;;;;9.40;7.80;;;;;;;12.01;70.88;98885.67;105630;1278;138901;-79
2022/09/29 09:10:02;;;;;;;8.50;7.50;;;;;;;12.06;70.81;98886.60;105860;1278;110069;-79
2022/09/29 09:12:51;;;;;;;;;;;;;;;12.06;70.21;98889.02;106267;1278;140060;-79
2022/09/29 09:15:34;;;;;;;;;;;;;;;11.99;70.15;98889.11;105859;1279;107936;-79
2022/09/29 09:18:21;;;;;;;7.90;7.20;;;;;;;11.94;70.05;98894.64;105606;1278;124981;-78
2022/09/29 09:21:01;;;;;;;8.30;7.50;;;;;;;11.90;70.04;98897.67;105736;1279;96516;-80
2022/09/29 09:23:47;;;;;;;8.70;7.80;;;;;;;11.91;70.10;98897.59;105785;1279;112213;-80
2022/09/29 09:26:21;;;;;;;8.50;7.70;;;;;;;11.98;70.12;98897.70;106097;1279;106905;-80
2022/09/29 09:28:58;;;;;;;10.30;8.90;;;;;;;12.04;70.18;98896.15;105852;1278;108854;-80
2022/09/29 09:31:39;;;;;;;10.20;8.80;;;;;;;12.01;69.76;98898.58;105773;1278;141194;-80
2022/09/29 09:34:18;;;;;;;9.80;8.80;;;;;;;11.99;69.94;98901.66;105863;1278;96365;-79
2022/09/29 09:37:04;;;;;;;9.90;8.90;;;;;;;11.96;69.71;98904.98;105737;1278;138212;-80
2022/09/29 09:39:49;;;;;;;11.20;9.30;;;;;;;11.94;69.80;98905.09;105776;1278;109183;-80
2022/09/29 09:42:25;;;;;;;11.00;8.90;;;;;;;11.88;69.54;98908.08;105675;1278;138793;-80
2022/09/29 09:45:03;;;;;;;9.40;8.50;;;;;;;11.77;69.27;98905.88;105931;1272;96489;-79
2022/09/29 09:47:42;;;;;;;11.50;8.80;;;;;;;11.67;69.46;98907.35;106230;1272;96582;-79
2022/09/29 09:50:17;;;;;;;9.60;8.60;;;;;;;11.62;69.66;98913.73;106180;1271;110761;-79
2022/09/29 09:52:56;;;;;;;10.30;9.20;;;;;;;11.56;69.72;98919.14;106215;1271;109252;-79
2022/09/29 09:55:33;;;;;;;10.30;9.10;;;;;;;11.54;69.83;98926.06;106057;1271;140080;-80
2022/09/29 09:58:24;;;;;;;10.50;9.40;;;;;;;11.49;69.91;98927.35;106138;1272;96506;-79
2022/09/29 10:01:01;;;;;;;9.90;8.70;;;;;;;11.44;69.68;98932.34;106098;1272;139808;-80
2022/09/29 10:03:37;;;;;;;9.80;8.80;;;;;;;11.36;69.17;98937.17;106233;1272;110134;-79
2022/09/29 10:06:09;;;;;;;9.40;8.60;;;;;;;11.26;69.57;98938.90;107666;1271;138376;-79
2022/09/29 10:08:42;;;;;;;10.40;9.20;;;;;;;11.25;69.77;98947.51;107745;1271;108804;-79
2022/09/29 10:11:26;;;;;;;10.40;9.40;;;;;;;11.22;69.89;98951.48;107078;1270;96470;-79
2022/09/29 10:14:04;;;;;;;11.40;10.10;;;;;;;11.21;69.93;98954.69;106083;1271;138316;-79
2022/09/29 10:16:43;;;;;;;11.70;10.60;;;;;;;11.19;69.81;98953.94;106194;1272;111158;-79
2022/09/29 10:19:21;;;;;;;12.00;10.20;;;;;;;11.14;69.92;98950.70;106073;1271;140988;-79
2022/09/29 10:21:53;;;;;;;11.30;10.10;;;;;;;11.14;69.94;98955.94;106179;1271;108844;-79
2022/09/29 10:24:30;;;;;;;11.30;9.60;;;;;;;11.10;69.80;98954.05;106069;1271;138805;-79
2022/09/29 10:27:04;;;;;;;13.60;10.80;;;;;;;11.07;70.09;98959.95;106237;1272;97818;-79
2022/09/29 10:29:40;;;;;;;11.70;10.50;;;;;;;11.06;70.24;98966.27;106235;1271;112570;-79
2022/09/29 10:32:16;;;;;;;12.60;11.40;;;;;;;11.04;70.10;98970.94;106131;1271;108898;-80
2022/09/29 10:34:54;;;;;;;13.00;11.30;;;;;;;11.02;70.36;98971.95;106182;1272;108878;-79
2022/09/29 10:37:34;;;;;;;13.80;11.50;;;;;;;11.01;70.36;98970.07;105971;1273;140080;-80
2022/09/29 10:40:19;;;;;;;13.20;11.80;;;;;;;11.00;70.33;98974.30;106292;1272;97830;-79
2022/09/29 10:42:52;;;;;;;14.20;12.70;;;;;;;10.99;70.29;98981.66;106474;1271;138622;-80
2022/09/29 10:45:28;;;;;;;13.20;11.80;;;;;;;10.97;70.30;98981.92;106232;1271;109132;-79
2022/09/29 10:48:15;;;;;;;13.60;11.60;;;;;;;10.99;70.18;98982.86;106043;1271;139022;-79
2022/09/29 10:50:54;;;;;;;14.50;13.00;;;;;;;10.96;70.23;98979.20;106152;1272;97828;-79
2022/09/29 10:53:34;;;;;;;13.80;12.40;;;;;;;10.97;70.29;98978.13;106151;1271;97822;-78
2022/09/29 10:56:16;;;;;;;14.10;12.80;;;;;;;10.99;70.36;98980.78;106081;1272;138415;-79
2022/09/29 10:58:56;;;;;;;14.90;13.30;;;;;;;10.99;70.38;98988.05;106335;1272;109212;-79
2022/09/29 11:01:48;;;;;;;15.60;14.00;;;;;;;11.00;70.35;98982.61;106072;1272;140397;-78
2022/09/29 11:04:26;;;;;;;14.70;13.30;;;;;;;11.00;70.27;98986.64;106212;1271;97850;-79
2022/09/29 11:07:06;;;;;;;17.50;14.40;;;;;;;11.04;70.68;98991.79;106079;1272;138538;-79
2022/09/29 11:09:40;;;;;;;15.70;14.20;;;;;;;11.12;70.58;98993.95;106248;1271;111555;-80
2022/09/29 11:12:31;;;;;;;15.60;13.40;;;;;;;11.18;70.16;98997.14;107095;1272;138965;-80
2022/09/29 11:15:22;;;;;;;15.10;13.60;;;;;;;11.25;70.36;99000.58;106133;1272;108983;-79
2022/09/29 11:17:55;;;;;;;15.90;14.30;;;;;;;11.34;70.41;99004.75;106097;1272;139779;-80
2022/09/29 11:20:35;;;;;;;15.00;13.50;;;;;;;11.40;70.21;99005.79;106245;1271;97813;-80
2022/09/29 11:23:24;;;;;;;14.80;13.40;;;;;;;11.47;70.30;99006.81;106115;1273;112509;-80
2022/09/29 11:26:20;;;;;;;15.90;14.20;;;;;;;11.53;69.88;99010.33;106020;1272;140835;-80
2022/09/29 11:29:13;;;;;;;15.00;13.60;;;;;;;11.57;69.88;99004.73;106063;1272;108984;-78
2022/09/29 11:32:00;;;;;;;16.70;14.60;;;;;;;11.63;70.10;99005.39;106036;1272;138854;-79
2022/09/29 11:34:48;;;;;;;16.70;14.50;;;;;;;11.68;69.98;99008.30;106191;1271;97897;-79
2022/09/29 11:37:35;;;;;;;15.10;13.40;;;;;;;11.73;70.02;99011.09;106007;1273;138938;-80
2022/09/29 11:40:19;;;;;;;16.50;14.20;;;;;;;11.82;69.96;99006.13;106122;1274;108901;-79
2022/09/29 11:43:13;;;;;;;14.40;12.90;;;;;;;11.90;69.94;99006.19;106100;1271;138768;-80
2022/09/29 11:45:56;;;;;;;15.80;14.30;;;;;;;12.00;69.73;99009.42;106194;1274;97827;-80
2022/09/29 11:48:52;;;;;;;15.70;13.60;;;;;;;12.05;69.04;99007.60;106260;1271;138696;-79
2022/09/29 11:51:33;;;;;;;19.10;15.10;;;;;;;12.06;68.71;99005.98;106198;1271;112080;-79
2022/09/29 11:54:23;;;;;;;15.60;14.00;;;;;;;12.06;68.89;99011.51;106130;1271;138859;-79
2022/09/29 11:57:04;;;;;;;13.50;11.40;;;;;;;12.12;68.52;99009.64;106139;1272;108889;-79